createdAt,value
2019-06-27T00:00:25.126Z,24.29
2019-06-27T00:02:50.969Z,24.44
2019-06-27T00:05:17.119Z,24.59
2019-06-27T00:07:42.966Z,24.69
2019-06-27T00:10:09.135Z,24.71
2019-06-27T00:12:35.006Z,24.81
2019-06-27T00:15:00.861Z,24.79
2019-06-27T00:17:26.696Z,24.82
2019-06-27T00:19:52.571Z,24.76
2019-06-27T00:22:18.573Z,24.89
2019-06-27T00:24:44.472Z,24.84
2019-06-27T00:27:10.307Z,24.87
2019-06-27T00:29:36.149Z,24.86
2019-06-27T00:32:02.056Z,24.84
2019-06-27T00:34:27.983Z,24.83
2019-06-27T00:36:53.846Z,24.83
2019-06-27T00:39:19.674Z,24.74
2019-06-27T00:41:45.523Z,24.73
2019-06-27T00:44:11.364Z,24.70
2019-06-27T00:46:37.327Z,24.58
2019-06-27T00:49:03.275Z,24.55
2019-06-27T00:51:29.235Z,24.54
2019-06-27T00:53:55.058Z,24.35
2019-06-27T00:56:20.896Z,24.17
2019-06-27T00:58:46.754Z,24.22
2019-06-27T01:01:12.582Z,23.96
2019-06-27T01:03:38.455Z,24.32
2019-06-27T01:06:04.297Z,24.42
2019-06-27T01:08:30.201Z,24.48
2019-06-27T01:10:56.205Z,24.50
2019-06-27T01:13:22.201Z,24.50
2019-06-27T01:15:48.052Z,24.48
2019-06-27T01:18:13.897Z,24.26
2019-06-27T01:20:39.739Z,24.30
2019-06-27T01:23:05.588Z,24.04
2019-06-27T01:25:31.431Z,23.82
2019-06-27T01:27:57.261Z,23.79
2019-06-27T01:30:23.308Z,23.58
2019-06-27T01:32:49.152Z,23.88
2019-06-27T01:35:15.133Z,23.81
2019-06-27T01:37:40.958Z,23.75
2019-06-27T01:40:07.117Z,23.65
2019-06-27T01:42:32.964Z,23.68
2019-06-27T01:45:00.715Z,23.49
2019-06-27T01:47:26.547Z,23.49
2019-06-27T01:49:52.496Z,23.47
2019-06-27T01:52:18.321Z,23.28
2019-06-27T01:54:44.164Z,23.04
2019-06-27T01:57:10.001Z,23.16
2019-06-27T01:59:35.867Z,23.19
2019-06-27T02:02:01.701Z,23.23
2019-06-27T02:04:27.535Z,23.37
2019-06-27T02:06:53.416Z,23.43
2019-06-27T02:09:19.249Z,23.49
2019-06-27T02:11:45.074Z,23.53
2019-06-27T02:14:10.907Z,23.38
2019-06-27T02:16:36.754Z,23.45
2019-06-27T02:19:02.793Z,23.52
2019-06-27T02:21:28.636Z,23.63
2019-06-27T02:23:54.481Z,23.50
2019-06-27T02:26:20.336Z,22.97
2019-06-27T02:28:46.177Z,22.93
2019-06-27T02:31:12.139Z,22.98
2019-06-27T02:33:37.989Z,23.21
2019-06-27T02:36:03.930Z,22.95
2019-06-27T02:38:29.782Z,23.19
2019-06-27T02:40:58.676Z,23.27
2019-06-27T02:43:23.467Z,23.17
2019-06-27T02:45:49.442Z,22.56
2019-06-27T02:48:15.252Z,22.88
2019-06-27T02:50:41.096Z,23.04
2019-06-27T02:53:06.982Z,22.84
2019-06-27T02:55:32.784Z,22.68
2019-06-27T02:57:58.672Z,22.84
2019-06-27T03:00:24.591Z,22.50
2019-06-27T03:02:50.446Z,22.53
2019-06-27T03:05:16.582Z,22.86
2019-06-27T03:07:42.443Z,23.06
2019-06-27T03:10:09.289Z,23.03
2019-06-27T03:12:35.249Z,22.96
2019-06-27T03:15:05.319Z,22.88
2019-06-27T03:17:31.160Z,22.89
2019-06-27T03:19:57.019Z,22.93
2019-06-27T03:22:22.863Z,22.98
2019-06-27T03:24:48.712Z,22.96
2019-06-27T03:27:14.562Z,22.96
2019-06-27T03:29:40.442Z,22.82
2019-06-27T03:32:06.260Z,22.83
2019-06-27T03:34:32.223Z,22.83
2019-06-27T03:36:58.173Z,22.88
2019-06-27T03:39:24.002Z,22.73
2019-06-27T03:41:51.199Z,22.95
2019-06-27T03:44:17.050Z,22.86
2019-06-27T03:46:43.040Z,22.82
2019-06-27T03:49:08.874Z,22.69
2019-06-27T03:51:34.830Z,22.92
2019-06-27T03:54:00.661Z,22.74
2019-06-27T03:56:26.485Z,22.70
2019-06-27T03:59:10.629Z,22.75
2019-06-27T04:01:20.076Z,22.77
2019-06-27T04:03:45.929Z,22.83
2019-06-27T04:06:11.739Z,22.98
2019-06-27T04:08:37.589Z,22.95
2019-06-27T04:11:03.429Z,22.82
2019-06-27T04:13:29.585Z,22.90
2019-06-27T04:15:55.426Z,22.94
2019-06-27T04:18:21.371Z,22.93
2019-06-27T04:20:47.228Z,22.91
2019-06-27T04:23:13.089Z,22.92
2019-06-27T04:25:38.934Z,23.09
2019-06-27T04:28:04.813Z,23.16
2019-06-27T04:30:30.626Z,23.41
2019-06-27T04:32:56.502Z,23.50
2019-06-27T04:35:22.377Z,23.17
2019-06-27T04:37:48.226Z,23.24
2019-06-27T04:40:14.176Z,23.31
2019-06-27T04:42:40.026Z,23.23
2019-06-27T04:45:06.074Z,22.94
2019-06-27T04:47:32.014Z,23.13
2019-06-27T04:49:57.878Z,23.00
2019-06-27T04:52:23.730Z,23.31
2019-06-27T04:54:49.588Z,23.37
2019-06-27T04:57:15.444Z,23.47
2019-06-27T04:59:53.119Z,23.35
2019-06-27T05:02:09.052Z,23.36
2019-06-27T05:04:34.890Z,23.06
2019-06-27T05:07:01.382Z,22.99
2019-06-27T05:09:27.288Z,23.35
2019-06-27T05:11:53.133Z,23.32
2019-06-27T05:14:18.976Z,23.45
2019-06-27T05:16:44.871Z,23.77
2019-06-27T05:19:10.729Z,23.66
2019-06-27T05:21:36.569Z,23.45
2019-06-27T05:24:02.587Z,23.65
2019-06-27T05:26:28.502Z,23.56
2019-06-27T05:28:54.360Z,23.58
2019-06-27T05:31:20.205Z,23.68
2019-06-27T05:33:46.066Z,23.77
2019-06-27T05:36:11.925Z,24.07
2019-06-27T05:38:37.973Z,24.18
2019-06-27T05:41:03.825Z,24.32
2019-06-27T05:43:29.641Z,23.90
2019-06-27T05:45:55.478Z,24.25
2019-06-27T05:48:21.347Z,24.31
2019-06-27T05:50:47.260Z,24.50
2019-06-27T05:53:13.140Z,24.39
2019-06-27T05:55:39.001Z,24.08
2019-06-27T05:58:04.834Z,24.21
2019-06-27T06:00:30.706Z,24.21
2019-06-27T06:02:56.635Z,24.40
2019-06-27T06:05:22.527Z,24.38
2019-06-27T06:07:48.404Z,24.61
2019-06-27T06:10:14.474Z,24.53
2019-06-27T06:12:40.338Z,24.33
2019-06-27T06:15:06.265Z,24.81
2019-06-27T06:17:32.123Z,24.65
2019-06-27T06:19:57.993Z,24.74
2019-06-27T06:22:23.820Z,24.78
2019-06-27T06:24:49.662Z,25.12
2019-06-27T06:27:15.513Z,24.67
2019-06-27T06:29:41.358Z,24.81
2019-06-27T06:32:07.192Z,24.94
2019-06-27T06:34:33.050Z,25.42
2019-06-27T06:36:58.892Z,25.71
2019-06-27T06:39:24.765Z,25.26
2019-06-27T06:41:50.587Z,25.29
2019-06-27T06:44:16.427Z,25.18
2019-06-27T06:46:42.897Z,25.48
2019-06-27T06:49:08.732Z,25.40
2019-06-27T06:51:34.585Z,25.57
2019-06-27T06:54:00.460Z,25.48
2019-06-27T06:56:27.112Z,25.74
2019-06-27T06:58:52.958Z,25.80
2019-06-27T07:01:18.796Z,26.08
2019-06-27T07:03:44.663Z,25.83
2019-06-27T07:06:10.477Z,26.33
2019-06-27T07:08:36.336Z,26.80
2019-06-27T07:11:02.180Z,26.30
2019-06-27T07:13:28.036Z,26.10
2019-06-27T07:15:53.854Z,26.09
2019-06-27T07:18:19.704Z,26.10
2019-06-27T07:20:45.583Z,25.99
2019-06-27T07:23:11.419Z,25.90
2019-06-27T07:25:37.262Z,26.37
2019-06-27T07:28:03.203Z,26.67
2019-06-27T07:30:29.052Z,26.76
2019-06-27T07:32:54.882Z,27.13
2019-06-27T07:35:20.835Z,26.45
2019-06-27T07:37:46.690Z,26.49
2019-06-27T07:40:12.744Z,26.95
2019-06-27T07:42:38.590Z,27.32
2019-06-27T07:45:05.913Z,26.78
2019-06-27T07:47:31.769Z,26.48
2019-06-27T07:49:57.617Z,26.76
2019-06-27T07:52:23.490Z,26.99
2019-06-27T07:54:49.407Z,27.02
2019-06-27T07:57:15.252Z,27.17
2019-06-27T07:59:41.098Z,26.85
2019-06-27T08:02:06.915Z,27.36
2019-06-27T08:04:32.750Z,27.43
2019-06-27T08:06:58.594Z,27.75
2019-06-27T08:09:24.465Z,27.25
2019-06-27T08:11:50.336Z,26.85
2019-06-27T08:14:16.197Z,27.61
2019-06-27T08:16:42.055Z,27.47
2019-06-27T08:19:07.903Z,27.76
2019-06-27T08:21:33.756Z,28.04
2019-06-27T08:23:59.600Z,28.42
2019-06-27T08:26:25.413Z,28.29
2019-06-27T08:28:51.260Z,28.33
2019-06-27T08:31:17.145Z,28.02
2019-06-27T08:33:42.952Z,28.01
2019-06-27T08:36:08.796Z,28.37
2019-06-27T08:38:34.671Z,28.78
2019-06-27T08:41:00.493Z,28.83
2019-06-27T08:43:26.347Z,28.42
2019-06-27T08:45:52.406Z,28.33
2019-06-27T08:48:18.343Z,27.96
2019-06-27T08:50:44.177Z,28.50
2019-06-27T08:53:10.064Z,29.09
2019-06-27T08:55:36.329Z,29.38
2019-06-27T08:58:02.345Z,29.25
2019-06-27T09:00:28.306Z,28.74
2019-06-27T09:02:54.160Z,29.12
2019-06-27T09:05:20.099Z,29.21
2019-06-27T09:07:45.947Z,29.30
2019-06-27T09:10:12.014Z,29.30
2019-06-27T09:12:37.863Z,29.73
2019-06-27T09:15:06.247Z,29.91
2019-06-27T09:17:32.070Z,29.56
2019-06-27T09:19:57.920Z,29.84
2019-06-27T09:22:23.735Z,29.53
2019-06-27T09:24:49.596Z,30.02
2019-06-27T09:27:15.442Z,29.50
2019-06-27T09:29:41.293Z,29.72
2019-06-27T09:32:15.343Z,29.36
2019-06-27T09:34:34.903Z,29.19
2019-06-27T09:37:00.875Z,29.30
2019-06-27T09:39:27.185Z,29.62
2019-06-27T09:41:53.127Z,29.32
2019-06-27T09:44:18.982Z,29.06
2019-06-27T09:46:44.849Z,28.82
2019-06-27T09:49:10.677Z,29.16
2019-06-27T09:51:36.556Z,29.51
2019-06-27T09:54:02.514Z,29.82
2019-06-27T09:56:28.387Z,29.62
2019-06-27T09:58:54.208Z,30.21
2019-06-27T10:01:20.070Z,30.14
2019-06-27T10:03:45.919Z,29.57
2019-06-27T10:06:11.804Z,30.35
2019-06-27T10:08:37.744Z,30.15
2019-06-27T10:11:03.707Z,30.74
2019-06-27T10:13:29.562Z,30.49
2019-06-27T10:15:55.524Z,30.37
2019-06-27T10:18:21.408Z,30.16
2019-06-27T10:20:47.353Z,30.36
2019-06-27T10:23:13.213Z,29.85
2019-06-27T10:25:39.051Z,29.71
2019-06-27T10:28:05.049Z,30.19
2019-06-27T10:30:30.904Z,30.05
2019-06-27T10:32:59.754Z,29.70
2019-06-27T10:35:24.566Z,30.15
2019-06-27T10:37:50.411Z,30.52
2019-06-27T10:40:16.368Z,30.45
2019-06-27T10:42:42.192Z,30.66
2019-06-27T10:45:08.762Z,30.40
2019-06-27T10:47:34.799Z,30.62
2019-06-27T10:50:00.696Z,31.46
2019-06-27T10:52:26.497Z,31.01
2019-06-27T10:54:52.406Z,30.55
2019-06-27T10:57:18.238Z,30.02
2019-06-27T10:59:44.103Z,30.22
2019-06-27T11:02:09.935Z,30.59
2019-06-27T11:04:35.781Z,30.38
2019-06-27T11:07:01.658Z,30.81
2019-06-27T11:09:27.509Z,30.83
2019-06-27T11:11:53.351Z,30.62
2019-06-27T11:14:19.411Z,31.38
2019-06-27T11:16:45.286Z,31.65
2019-06-27T11:19:11.134Z,31.15
2019-06-27T11:21:36.975Z,31.88
2019-06-27T11:24:03.044Z,32.35
2019-06-27T11:26:28.881Z,31.35
2019-06-27T11:28:55.228Z,31.93
2019-06-27T11:31:21.113Z,32.24
2019-06-27T11:33:46.941Z,31.79
2019-06-27T11:36:12.792Z,31.40
2019-06-27T11:38:38.731Z,31.41
2019-06-27T11:41:04.595Z,31.74
2019-06-27T11:43:30.486Z,31.84
2019-06-27T11:45:56.355Z,31.72
2019-06-27T11:48:22.205Z,31.75
2019-06-27T11:50:48.053Z,31.57
2019-06-27T11:53:13.895Z,31.47
2019-06-27T11:55:39.917Z,32.44
2019-06-27T11:58:05.787Z,31.92
2019-06-27T12:00:31.740Z,32.43
2019-06-27T12:02:57.613Z,32.43
2019-06-27T12:05:23.499Z,32.04
2019-06-27T12:07:49.344Z,32.03
2019-06-27T12:10:15.466Z,32.46
2019-06-27T12:12:41.351Z,31.61
2019-06-27T12:15:07.486Z,32.00
2019-06-27T12:17:33.353Z,32.22
2019-06-27T12:19:59.298Z,32.29
2019-06-27T12:22:25.176Z,32.42
2019-06-27T12:24:51.045Z,33.09
2019-06-27T12:27:16.890Z,32.69
2019-06-27T12:29:42.866Z,31.93
2019-06-27T12:32:08.689Z,32.31
2019-06-27T12:34:34.539Z,32.34
2019-06-27T12:37:00.397Z,32.26
2019-06-27T12:39:26.470Z,32.44
2019-06-27T12:41:52.347Z,32.58
2019-06-27T12:44:18.183Z,32.98
2019-06-27T12:46:45.206Z,31.84
2019-06-27T12:49:11.073Z,31.94
2019-06-27T12:51:36.920Z,32.07
2019-06-27T12:54:02.817Z,32.96
2019-06-27T12:56:28.632Z,32.07
2019-06-27T12:58:54.487Z,32.80
2019-06-27T13:01:20.399Z,33.19
2019-06-27T13:03:46.265Z,33.14
2019-06-27T13:06:12.092Z,33.33
2019-06-27T13:08:37.969Z,32.45
2019-06-27T13:11:03.793Z,32.17
2019-06-27T13:13:30.584Z,32.96
2019-06-27T13:15:56.475Z,32.60
2019-06-27T13:18:22.315Z,33.09
2019-06-27T13:20:57.752Z,32.76
2019-06-27T13:23:15.971Z,32.92
2019-06-27T13:25:41.833Z,33.21
2019-06-27T13:28:07.691Z,33.80
2019-06-27T13:30:33.703Z,34.33
2019-06-27T13:32:59.559Z,34.24
2019-06-27T13:35:25.451Z,32.50
2019-06-27T13:37:51.338Z,32.52
2019-06-27T13:40:17.288Z,32.67
2019-06-27T13:42:45.514Z,33.18
2019-06-27T13:45:11.475Z,33.66
2019-06-27T13:47:37.332Z,33.60
2019-06-27T13:50:04.791Z,34.26
2019-06-27T13:52:30.793Z,34.16
2019-06-27T13:54:56.657Z,33.53
2019-06-27T13:57:22.617Z,32.71
2019-06-27T13:59:48.479Z,32.50
2019-06-27T14:02:14.314Z,32.46
2019-06-27T14:04:55.811Z,33.54
2019-06-27T14:07:07.960Z,33.61
2019-06-27T14:09:47.692Z,33.93
2019-06-27T14:12:01.579Z,33.72
2019-06-27T14:14:27.457Z,33.98
2019-06-27T14:16:53.312Z,32.83
2019-06-27T14:19:19.151Z,33.36
2019-06-27T14:21:46.203Z,33.58
2019-06-27T14:24:12.078Z,33.96
2019-06-27T14:26:37.924Z,33.99
2019-06-27T14:29:03.791Z,33.53
2019-06-27T14:31:29.672Z,33.70
2019-06-27T14:33:55.502Z,33.02
2019-06-27T14:36:21.340Z,33.02
2019-06-27T14:38:47.248Z,32.83
2019-06-27T14:41:13.079Z,33.20
2019-06-27T14:43:38.934Z,33.01
2019-06-27T14:46:04.859Z,33.64
2019-06-27T14:48:30.700Z,32.83
2019-06-27T14:50:56.606Z,32.82
2019-06-27T14:53:22.500Z,32.27
2019-06-27T14:55:48.362Z,32.29
2019-06-27T14:58:14.183Z,32.65
2019-06-27T15:00:40.136Z,33.02
2019-06-27T15:03:05.995Z,33.02
2019-06-27T15:05:33.639Z,33.53
2019-06-27T15:07:59.595Z,32.57
2019-06-27T15:10:25.458Z,32.76
2019-06-27T15:12:56.982Z,32.00
2019-06-27T15:15:19.259Z,32.55
2019-06-27T15:17:45.119Z,32.75
2019-06-27T15:20:11.063Z,32.77
2019-06-27T15:22:36.929Z,32.98
2019-06-27T15:25:06.005Z,32.40
2019-06-27T15:27:31.894Z,32.61
2019-06-27T15:29:57.834Z,33.13
2019-06-27T15:32:23.802Z,33.43
2019-06-27T15:34:49.672Z,32.78
2019-06-27T15:37:15.521Z,32.31
2019-06-27T15:39:41.371Z,32.07
2019-06-27T15:42:07.227Z,32.08
2019-06-27T15:44:33.061Z,32.13
2019-06-27T15:46:58.933Z,32.71
2019-06-27T15:49:24.888Z,32.17
2019-06-27T15:51:50.795Z,31.91
2019-06-27T15:54:16.600Z,32.07
2019-06-27T15:56:42.425Z,31.83
2019-06-27T15:59:08.288Z,32.04
2019-06-27T16:01:34.134Z,31.72
2019-06-27T16:04:00.189Z,31.93
2019-06-27T16:06:26.040Z,31.86
2019-06-27T16:08:51.858Z,31.50
2019-06-27T16:11:17.705Z,31.16
2019-06-27T16:13:43.638Z,31.01
2019-06-27T16:16:09.572Z,31.14
2019-06-27T16:18:35.424Z,31.32
2019-06-27T16:21:01.379Z,31.02
2019-06-27T16:23:27.311Z,30.95
2019-06-27T16:25:53.188Z,31.00
2019-06-27T16:28:19.009Z,31.05
2019-06-27T16:30:44.826Z,31.01
2019-06-27T16:33:10.667Z,31.26
2019-06-27T16:35:36.502Z,31.06
2019-06-27T16:38:02.473Z,30.89
2019-06-27T16:40:28.395Z,30.93
2019-06-27T16:42:54.245Z,30.27
2019-06-27T16:45:20.183Z,30.73
2019-06-27T16:47:46.037Z,30.41
2019-06-27T16:50:12.269Z,30.65
2019-06-27T16:52:38.139Z,30.44
2019-06-27T16:55:04.262Z,30.46
2019-06-27T16:57:30.111Z,30.24
2019-06-27T16:59:55.972Z,30.37
2019-06-27T17:02:21.834Z,30.46
2019-06-27T17:04:47.690Z,30.36
2019-06-27T17:07:13.511Z,30.40
2019-06-27T17:09:39.377Z,30.23
2019-06-27T17:12:05.228Z,30.30
2019-06-27T17:14:31.084Z,30.35
2019-06-27T17:16:56.927Z,30.33
2019-06-27T17:19:22.787Z,30.07
2019-06-27T17:21:48.632Z,29.70
2019-06-27T17:24:14.455Z,30.00
2019-06-27T17:26:40.312Z,29.83
2019-06-27T17:29:06.166Z,29.79
2019-06-27T17:31:32.031Z,29.55
2019-06-27T17:33:57.873Z,29.41
2019-06-27T17:36:23.729Z,29.23
2019-06-27T17:38:49.585Z,29.18
2019-06-27T17:41:15.449Z,29.21
2019-06-27T17:43:41.651Z,28.92
2019-06-27T17:46:07.522Z,28.95
2019-06-27T17:48:33.438Z,29.10
2019-06-27T17:50:59.271Z,28.92
2019-06-27T17:53:25.144Z,29.13
2019-06-27T17:55:50.984Z,28.80
2019-06-27T17:58:16.822Z,28.95
2019-06-27T18:00:42.663Z,28.62
2019-06-27T18:03:08.558Z,28.64
2019-06-27T18:05:34.394Z,28.51
2019-06-27T18:08:00.225Z,28.33
2019-06-27T18:10:26.076Z,28.39
2019-06-27T18:12:51.919Z,28.33
2019-06-27T18:15:18.797Z,28.17
2019-06-27T18:17:44.631Z,28.48
2019-06-27T18:20:10.785Z,28.23
2019-06-27T18:22:36.804Z,28.19
2019-06-27T18:25:03.561Z,28.39
2019-06-27T18:27:29.389Z,28.16
2019-06-27T18:29:55.241Z,27.95
2019-06-27T18:32:21.069Z,27.54
2019-06-27T18:34:46.924Z,27.07
2019-06-27T18:37:25.769Z,27.27
2019-06-27T18:39:40.516Z,27.26
2019-06-27T18:42:06.373Z,27.26
2019-06-27T18:44:32.206Z,27.15
2019-06-27T18:46:58.047Z,27.08
2019-06-27T18:49:23.890Z,26.96
2019-06-27T18:51:49.756Z,26.79
2019-06-27T18:54:15.604Z,26.93
2019-06-27T18:56:41.450Z,26.62
2019-06-27T18:59:07.290Z,26.66
2019-06-27T19:01:33.163Z,26.70
2019-06-27T19:03:59.003Z,26.80
2019-06-27T19:06:24.833Z,26.51
2019-06-27T19:08:50.675Z,26.54
2019-06-27T19:11:16.510Z,26.19
2019-06-27T19:13:42.372Z,26.42
2019-06-27T19:16:08.211Z,26.33
2019-06-27T19:18:43.455Z,26.51
2019-06-27T19:21:11.199Z,26.20
2019-06-27T19:23:55.719Z,26.26
2019-06-27T19:26:21.558Z,26.06
2019-06-27T19:28:47.421Z,26.02
2019-06-27T19:31:13.354Z,25.88
2019-06-27T19:33:39.204Z,25.86
2019-06-27T19:36:05.049Z,25.77
2019-06-27T19:38:30.915Z,25.20
2019-06-27T19:40:56.758Z,25.39
2019-06-27T19:43:27.738Z,25.64
2019-06-27T19:45:50.382Z,25.68
2019-06-27T19:48:16.218Z,25.29
2019-06-27T19:50:42.066Z,24.78
2019-06-27T19:53:07.899Z,24.86
2019-06-27T19:55:37.488Z,24.57
2019-06-27T19:58:03.093Z,23.93
2019-06-27T20:00:29.021Z,24.17
2019-06-27T20:02:54.865Z,23.65
2019-06-27T20:05:20.705Z,23.44
2019-06-27T20:07:46.547Z,23.03
2019-06-27T20:10:12.801Z,22.92
2019-06-27T20:12:38.643Z,23.59
2019-06-27T20:15:04.667Z,23.49
2019-06-27T20:17:30.506Z,23.61
2019-06-27T20:19:56.358Z,23.15
2019-06-27T20:22:22.177Z,22.98
2019-06-27T20:24:48.008Z,23.45
2019-06-27T20:27:13.868Z,23.61
2019-06-27T20:29:39.712Z,23.46
2019-06-27T20:32:05.603Z,23.40
2019-06-27T20:34:31.452Z,23.48
2019-06-27T20:36:58.070Z,23.42
2019-06-27T20:39:23.944Z,23.19
2019-06-27T20:41:49.803Z,23.35
2019-06-27T20:44:15.784Z,23.26
2019-06-27T20:46:41.647Z,22.99
2019-06-27T20:49:07.554Z,22.89
2019-06-27T20:51:33.463Z,22.61
2019-06-27T20:53:59.339Z,22.79
2019-06-27T20:56:25.195Z,22.65
2019-06-27T20:58:51.077Z,22.35
2019-06-27T21:01:16.915Z,22.32
2019-06-27T21:03:42.780Z,22.75
2019-06-27T21:06:08.659Z,22.61
2019-06-27T21:08:47.168Z,22.69
2019-06-27T21:11:02.237Z,22.54
2019-06-27T21:13:28.072Z,21.88
2019-06-27T21:15:53.938Z,21.63
2019-06-27T21:18:19.783Z,21.43
2019-06-27T21:20:45.659Z,21.11
2019-06-27T21:23:11.518Z,21.02
2019-06-27T21:25:37.345Z,20.96
2019-06-27T21:28:03.373Z,20.95
2019-06-27T21:30:29.314Z,21.28
2019-06-27T21:32:55.134Z,21.16
2019-06-27T21:35:20.977Z,21.35
2019-06-27T21:37:46.857Z,21.36
2019-06-27T21:40:13.156Z,21.58
2019-06-27T21:42:39.063Z,21.39
2019-06-27T21:45:05.413Z,21.07
2019-06-27T21:47:31.304Z,21.34
2019-06-27T21:49:57.182Z,20.28
2019-06-27T21:52:23.022Z,20.26
2019-06-27T21:54:48.896Z,20.47
2019-06-27T21:57:14.744Z,20.51
2019-06-27T21:59:40.614Z,20.46
2019-06-27T22:02:06.454Z,20.46
2019-06-27T22:04:32.311Z,20.78
2019-06-27T22:06:58.134Z,20.84
2019-06-27T22:09:25.518Z,20.76
2019-06-27T22:11:51.608Z,20.90
2019-06-27T22:14:17.461Z,20.77
2019-06-27T22:16:43.296Z,20.62
2019-06-27T22:19:09.237Z,20.56
2019-06-27T22:21:35.175Z,20.35
2019-06-27T22:24:01.622Z,20.71
2019-06-27T22:26:27.466Z,20.86
2019-06-27T22:28:53.298Z,21.12
2019-06-27T22:31:19.150Z,20.73
2019-06-27T22:33:44.992Z,20.41
2019-06-27T22:36:10.848Z,20.30
2019-06-27T22:38:54.964Z,19.83
2019-06-27T22:41:39.396Z,19.92
2019-06-27T22:44:23.299Z,19.84
2019-06-27T22:47:07.450Z,19.99
2019-06-27T22:49:33.177Z,19.99
2019-06-27T22:52:06.508Z,19.97
2019-06-27T22:54:34.255Z,19.53
2019-06-27T22:57:00.118Z,19.76
2019-06-27T22:59:25.964Z,19.61
2019-06-27T23:01:51.828Z,19.29
2019-06-27T23:04:17.673Z,19.40
2019-06-27T23:06:43.535Z,18.94
2019-06-27T23:09:09.379Z,19.31
2019-06-27T23:11:35.228Z,19.52
2019-06-27T23:14:01.095Z,19.46
2019-06-27T23:16:26.932Z,19.55
2019-06-27T23:18:52.787Z,19.66
2019-06-27T23:21:18.630Z,19.41
2019-06-27T23:23:44.519Z,19.26
2019-06-27T23:26:10.504Z,19.07
2019-06-27T23:28:36.368Z,18.93
2019-06-27T23:31:02.268Z,19.16
2019-06-27T23:33:28.227Z,18.74
2019-06-27T23:35:54.102Z,18.78
2019-06-27T23:38:19.962Z,18.79
2019-06-27T23:40:45.898Z,18.91
2019-06-27T23:43:11.784Z,19.04
2019-06-27T23:45:38.375Z,18.92
2019-06-27T23:48:04.244Z,19.11
2019-06-27T23:50:30.112Z,19.16
2019-06-27T23:52:55.954Z,19.18
2019-06-27T23:55:21.784Z,19.39
2019-06-27T23:57:47.649Z,18.90
